Time;durP1;ratioP1;P1;durP2;ratioP2;P2;SDS_P1;SDS_P2;PMS_P1;PMS_P2;Temp;Humidity;BMP_temperature;BMP_pressure;BME280_temperature;BME280_humidity;BME280_pressure;Samples;Min_cycle;Max_cycle;Signal;HPM_P1;HPM_P2
2022/02/09 00:00:04;;;;;;;10.52;5.18;;;;;;;-2.99;100.00;94305.56;2114606;28;20019;-80
2022/02/09 00:03:22;;;;;;;9.15;4.82;;;;;;;-3.04;100.00;94304.63;2106585;28;20822;-82
2022/02/09 00:06:07;;;;;;;10.15;5.28;;;;;;;-3.06;100.00;94303.41;2100928;28;20033;-81
2022/02/09 00:07:18;;;;;;;11.05;5.63;;;;;;;-3.20;100.00;94303.50;2097636;28;20029;-81
2022/02/09 00:08:21;;;;;;;10.32;5.32;;;;;;;-3.16;100.00;94298.41;2089648;28;20025;-83
2022/02/09 00:09:23;;;;;;;11.48;5.13;;;;;;;-3.19;100.00;94301.63;2071828;28;20032;-80
2022/02/09 00:10:27;;;;;;;9.25;5.65;;;;;;;-3.16;100.00;94293.19;2072436;28;20029;-80
2022/02/09 00:11:33;;;;;;;9.48;5.18;;;;;;;-3.20;100.00;94305.34;2071942;28;20022;-81
2022/02/09 00:12:45;;;;;;;9.25;5.28;;;;;;;-3.17;100.00;94300.25;2082950;28;20463;-80
2022/02/09 00:13:55;;;;;;;11.65;4.97;;;;;;;-3.18;100.00;94303.94;2091501;28;20124;-82
2022/02/09 00:15:13;;;;;;;;;;;;;;;-3.24;100.00;94307.78;2104288;28;20024;-83
2022/02/09 00:19:14;;;;;;;9.32;5.30;;;;;;;-3.28;100.00;94306.81;2093630;28;20036;-81
2022/02/09 00:20:40;;;;;;;8.10;4.20;;;;;;;-3.27;100.00;94310.97;2083162;28;20120;-80
2022/02/09 00:22:01;;;;;;;7.82;4.35;;;;;;;-3.23;100.00;94317.16;2096667;28;20027;-81
2022/02/09 00:24:52;;;;;;;8.38;4.65;;;;;;;-3.27;100.00;94313.59;2100668;28;20115;-82
2022/02/09 00:32:00;;;;;;;11.32;5.47;;;;;;;-3.39;100.00;94300.28;2117268;27;20020;-82
2022/02/09 00:40:49;;;;;;;10.00;4.75;;;;;;;-3.20;100.00;94297.50;2106447;28;20489;-81
2022/02/09 00:42:01;;;;;;;;;;;;;;;-3.39;100.00;94302.91;2106987;28;20020;-82
2022/02/09 01:02:39;;;;;;;11.27;5.93;;;;;;;-3.35;100.00;94288.94;2099646;28;20528;-81
2022/02/09 01:32:57;;;;;;;13.85;5.93;;;;;;;-3.56;100.00;94287.88;2116796;27;20119;-83
2022/02/09 01:39:48;;;;;;;8.38;4.68;;;;;;;-3.78;100.00;94290.47;2106980;28;20515;-80
2022/02/09 01:55:32;;;;;;;7.82;3.72;;;;;;;-3.83;100.00;94273.09;2123065;27;20361;-81
2022/02/09 01:56:34;;;;;;;6.60;4.10;;;;;;;-3.79;100.00;94268.81;2116579;27;20034;-82
2022/02/09 01:57:36;;;;;;;7.90;4.30;;;;;;;-3.96;100.00;94268.69;2104741;28;20099;-81
2022/02/09 01:58:37;;;;;;;7.85;4.65;;;;;;;-3.91;100.00;94263.34;2096850;28;20031;-81
2022/02/09 01:59:39;;;;;;;11.50;3.92;;;;;;;-3.83;100.00;94265.25;2105068;28;20460;-81
2022/02/09 02:00:41;;;;;;;8.45;3.92;;;;;;;-3.85;100.00;94270.00;2105032;28;20031;-82
2022/02/09 02:01:42;;;;;;;9.43;4.45;;;;;;;-3.81;100.00;94273.56;2093142;28;20051;-82
2022/02/09 02:02:43;;;;;;;8.30;4.15;;;;;;;-3.84;100.00;94256.66;2096373;28;20080;-82
2022/02/09 02:03:44;;;;;;;7.85;4.20;;;;;;;-4.01;100.00;94260.97;2108860;28;20075;-83
2022/02/09 02:04:47;;;;;;;7.80;4.20;;;;;;;-3.78;100.00;94264.34;2104762;28;20457;-83
2022/02/09 02:05:48;;;;;;;8.98;4.32;;;;;;;-3.70;100.00;94261.03;2089434;28;20078;-80
2022/02/09 02:06:50;;;;;;;7.85;3.63;;;;;;;-3.76;100.00;94257.78;2097004;28;20089;-83
2022/02/09 02:07:55;;;;;;;8.48;4.28;;;;;;;-3.85;100.00;94255.09;2096312;28;20362;-81
2022/02/09 02:08:56;;;;;;;6.13;3.53;;;;;;;-3.86;100.00;94256.19;2098216;28;20772;-81
2022/02/09 02:10:04;;;;;;;6.97;3.70;;;;;;;-3.77;100.00;94247.66;2105728;28;20032;-81
2022/02/09 02:12:21;;;;;;;8.52;3.65;;;;;;;-3.80;100.00;94241.16;2092145;28;20036;-83
2022/02/09 02:17:56;;;;;;;6.65;3.10;;;;;;;-3.88;100.00;94247.09;2105757;28;20028;-80
2022/02/09 02:19:25;;;;;;;6.95;3.50;;;;;;;-3.94;100.00;94243.06;2089304;28;20394;-80
2022/02/09 02:20:36;;;;;;;6.15;3.20;;;;;;;-4.00;100.00;94246.84;2096782;28;20047;-80
2022/02/09 02:23:04;;;;;;;8.15;3.65;;;;;;;-3.88;100.00;94236.66;2101542;28;20103;-81
2022/02/09 02:39:13;;;;;;;6.90;2.60;;;;;;;-3.82;100.00;94227.59;2108119;28;20031;-81
2022/02/09 03:11:34;;;;;;;5.95;2.95;;;;;;;-3.83;100.00;94218.25;2107898;28;20130;-81
2022/02/09 03:12:39;;;;;;;9.13;3.95;;;;;;;-3.88;100.00;94219.13;2114008;28;20031;-80
2022/02/09 03:13:51;;;;;;;4.88;3.10;;;;;;;-3.88;100.00;94218.38;2105578;28;20049;-81
2022/02/09 03:15:03;;;;;;;7.13;3.22;;;;;;;-3.92;100.00;94220.03;2093359;28;20112;-82
2022/02/09 03:16:14;;;;;;;7.78;3.25;;;;;;;-3.95;100.00;94223.22;2093544;28;20028;-81
2022/02/09 03:17:20;;;;;;;9.05;3.50;;;;;;;-3.96;100.00;94219.84;2093130;28;20489;-80
2022/02/09 03:18:43;;;;;;;7.35;3.83;;;;;;;-3.95;100.00;94220.59;2091871;28;20031;-81
2022/02/09 03:19:58;;;;;;;5.53;2.90;;;;;;;-3.92;100.00;94212.19;2104114;28;20461;-81
2022/02/09 03:21:14;;;;;;;5.43;2.90;;;;;;;-3.95;100.00;94212.78;2109222;28;20027;-82
2022/02/09 03:24:35;;;;;;;8.60;3.90;;;;;;;-3.90;100.00;94212.69;2101779;28;20032;-81
2022/02/09 03:25:51;;;;;;;6.93;3.58;;;;;;;-3.85;100.00;94208.09;2097386;28;20039;-81
2022/02/09 03:27:17;;;;;;;4.97;3.47;;;;;;;-3.81;100.00;94214.28;2097190;28;20531;-82
2022/02/09 03:31:08;;;;;;;5.78;3.65;;;;;;;-3.72;100.00;94211.72;2118095;27;20030;-82
2022/02/09 03:44:20;;;;;;;7.05;3.47;;;;;;;-3.65;100.00;94180.69;2106825;28;20020;-81
2022/02/09 03:48:22;;;;;;;5.60;3.70;;;;;;;-3.72;100.00;94177.75;2107719;28;20023;-82
2022/02/09 03:51:42;;;;;;;4.53;3.03;;;;;;;-3.77;100.00;94167.44;2100645;28;20561;-81
2022/02/09 03:57:46;;;;;;;9.35;3.08;;;;;;;-3.76;100.00;94163.75;2123871;27;20507;-81
2022/02/09 03:58:47;;;;;;;5.10;2.95;;;;;;;-3.68;100.00;94164.88;2114451;28;20472;-81
2022/02/09 03:59:48;;;;;;;6.32;3.00;;;;;;;-3.74;100.00;94158.97;2106523;28;20020;-80
2022/02/09 04:00:49;;;;;;;5.25;3.28;;;;;;;-3.76;100.00;94161.13;2107151;28;20027;-82
2022/02/09 04:01:50;;;;;;;6.57;3.28;;;;;;;-3.77;100.00;94158.84;2119100;27;20016;-80
2022/02/09 04:02:58;;;;;;;6.90;3.38;;;;;;;-3.76;100.00;94152.53;2098611;28;20119;-82
2022/02/09 04:03:59;;;;;;;5.43;3.15;;;;;;;-3.80;100.00;94152.34;2106128;28;20121;-82
2022/02/09 04:05:00;;;;;;;7.15;3.80;;;;;;;-3.88;100.00;94158.31;2104535;28;20468;-82
2022/02/09 04:06:01;;;;;;;6.82;3.30;;;;;;;-3.85;100.00;94157.72;2098353;28;20377;-83
2022/02/09 04:07:02;;;;;;;7.35;3.30;;;;;;;-3.80;100.00;94160.19;2098246;28;20094;-80
2022/02/09 04:08:04;;;;;;;7.25;3.70;;;;;;;-3.83;100.00;94156.31;2090474;28;20044;-82
2022/02/09 04:09:14;;;;;;;6.15;3.70;;;;;;;-3.81;100.00;94156.81;2097522;28;20021;-81
2022/02/09 04:10:21;;;;;;;6.88;3.67;;;;;;;-3.84;100.00;94157.41;2106592;28;20573;-83
2022/02/09 04:11:28;;;;;;;6.20;3.50;;;;;;;-3.86;100.00;94156.19;2091000;28;20068;-80
2022/02/09 04:12:50;;;;;;;4.55;3.20;;;;;;;-3.89;100.00;94160.16;2091078;28;20036;-83
2022/02/09 04:15:29;;;;;;;5.63;2.78;;;;;;;-3.85;100.00;94153.25;2084820;28;20742;-80
2022/02/09 04:17:45;;;;;;;4.45;2.80;;;;;;;-3.88;100.00;94150.47;2098285;28;20037;-81
2022/02/09 04:39:02;;;;;;;6.35;3.55;;;;;;;-3.99;100.00;94160.41;2106290;28;20031;-80
2022/02/09 04:40:09;;;;;;;4.85;3.10;;;;;;;-4.00;100.00;94158.06;2082712;28;20119;-81
2022/02/09 04:43:04;;;;;;;10.02;3.95;;;;;;;-3.99;100.00;94157.03;2098873;28;20461;-81
2022/02/09 04:49:10;;;;;;;4.63;2.72;;;;;;;-4.05;100.00;94167.56;2096211;28;20028;-79
2022/02/09 04:51:25;;;;;;;5.65;2.63;;;;;;;-4.01;100.00;94161.75;2081367;28;20068;-82
2022/02/09 04:54:45;;;;;;;5.13;2.70;;;;;;;-4.08;100.00;94155.13;2098357;28;20028;-80
2022/02/09 04:58:25;;;;;;;6.60;2.75;;;;;;;-4.01;100.00;94159.16;2072730;28;20057;-81
2022/02/09 04:59:43;;;;;;;5.07;2.80;;;;;;;-3.91;100.00;94157.03;2091449;28;20040;-79
2022/02/09 05:01:01;;;;;;;5.00;2.33;;;;;;;-3.94;100.00;94151.66;2085894;28;20475;-81
2022/02/09 05:20:07;;;;;;;7.03;4.33;;;;;;;-3.74;100.00;94160.81;2108403;28;20446;-83
2022/02/09 05:26:49;;;;;;;6.82;5.10;;;;;;;-3.88;100.00;94163.53;2115683;27;20061;-81
2022/02/09 05:28:00;;;;;;;7.72;6.03;;;;;;;-3.95;100.00;94163.97;2105907;28;20031;-83
2022/02/09 05:29:02;;;;;;;9.10;6.85;;;;;;;-3.96;100.00;94170.22;2103024;28;20024;-81
2022/02/09 05:30:07;;;;;;;5.97;5.07;;;;;;;-4.00;100.00;94168.50;2106160;28;20024;-83
2022/02/09 05:31:09;;;;;;;6.65;4.20;;;;;;;-3.97;100.00;94165.31;2098254;28;20115;-82
2022/02/09 05:32:10;;;;;;;11.25;3.97;;;;;;;-3.90;100.00;94174.28;2097595;28;20029;-83
2022/02/09 05:33:11;;;;;;;6.72;4.05;;;;;;;-4.03;100.00;94169.91;2089276;28;20052;-82
2022/02/09 05:34:12;;;;;;;5.50;4.18;;;;;;;-4.06;100.00;94166.03;2089255;28;20031;-81
2022/02/09 05:35:16;;;;;;;16.27;9.07;;;;;;;-4.02;100.00;94171.44;2094981;28;20029;-84
2022/02/09 05:36:18;;;;;;;16.58;9.10;;;;;;;-3.96;100.00;94174.69;2089840;28;20048;-81
2022/02/09 05:37:19;;;;;;;19.10;10.27;;;;;;;-4.07;100.00;94169.72;2097003;28;20032;-81
2022/02/09 05:38:20;;;;;;;21.33;11.82;;;;;;;-4.00;100.00;94165.91;2105689;28;20027;-82
2022/02/09 05:39:20;;;;;;;20.45;11.48;;;;;;;-3.99;100.00;94164.84;2089228;28;20135;-82
2022/02/09 05:40:22;;;;;;;20.00;11.25;;;;;;;-4.10;100.00;94169.53;2090226;28;20049;-80
2022/02/09 05:41:23;;;;;;;18.35;11.13;;;;;;;-4.11;100.00;94166.16;2097611;28;20115;-81
2022/02/09 05:42:25;;;;;;;14.38;9.35;;;;;;;-4.12;100.00;94166.47;2106059;28;20012;-82
2022/02/09 05:43:27;;;;;;;16.17;8.02;;;;;;;-4.05;100.00;94164.94;2105881;28;20125;-81
2022/02/09 05:44:28;;;;;;;12.48;8.10;;;;;;;-4.02;100.00;94161.00;2089766;28;20632;-82
2022/02/09 05:46:36;;;;;;;14.15;8.65;;;;;;;-3.85;100.00;94165.53;2086971;28;20082;-81
2022/02/09 05:51:54;;;;;;;6.00;3.30;;;;;;;-4.19;100.00;94174.69;2111165;28;20114;-81
2022/02/09 05:55:38;;;;;;;6.00;3.30;;;;;;;-4.23;100.00;94170.34;2111227;28;20023;-83
2022/02/09 05:56:46;;;;;;;8.18;5.50;;;;;;;-4.16;100.00;94168.88;2100728;28;20054;-82
2022/02/09 05:57:50;;;;;;;12.07;7.30;;;;;;;-4.18;100.00;94172.84;2097234;28;20111;-82
2022/02/09 05:59:04;;;;;;;10.88;7.00;;;;;;;-4.19;100.00;94169.47;2097028;28;20031;-81
2022/02/09 06:00:06;;;;;;;7.75;5.53;;;;;;;-4.17;100.00;94179.59;2098333;28;20055;-83
2022/02/09 06:01:07;;;;;;;7.10;4.28;;;;;;;-4.16;100.00;94173.34;2096549;28;20054;-82
2022/02/09 06:02:08;;;;;;;6.82;2.90;;;;;;;-4.11;100.00;94173.22;2104950;28;20049;-83
2022/02/09 06:03:08;;;;;;;4.40;3.28;;;;;;;-4.13;100.00;94170.88;2120867;27;20031;-81
2022/02/09 06:04:10;;;;;;;6.07;2.83;;;;;;;-4.16;100.00;94175.94;2089181;28;20021;-81
2022/02/09 06:05:12;;;;;;;5.82;2.80;;;;;;;-4.22;100.00;94175.28;2086650;28;20761;-80
2022/02/09 06:06:13;;;;;;;6.00;2.30;;;;;;;-4.09;100.00;94171.84;2100414;28;20115;-83
2022/02/09 06:07:19;;;;;;;6.82;3.05;;;;;;;-4.02;100.00;94168.06;2096497;28;20021;-83
2022/02/09 06:08:22;;;;;;;5.40;2.72;;;;;;;-4.23;100.00;94178.97;2097267;28;20020;-82
2022/02/09 06:09:23;;;;;;;6.65;2.92;;;;;;;-4.28;100.00;94175.69;2113657;27;20325;-81
2022/02/09 06:10:31;;;;;;;5.22;2.58;;;;;;;-4.36;100.00;94179.78;2104884;28;20051;-82
2022/02/09 06:12:53;;;;;;;3.90;2.50;;;;;;;-4.35;100.00;94181.31;2098123;28;20396;-81
2022/02/09 06:20:06;;;;;;;4.35;2.35;;;;;;;-4.33;100.00;94181.81;2113450;28;20111;-82
2022/02/09 06:21:06;;;;;;;4.88;2.28;;;;;;;-4.35;100.00;94174.25;2103784;28;20016;-82
2022/02/09 06:22:07;;;;;;;4.55;2.70;;;;;;;-4.33;100.00;94173.97;2095765;28;20090;-81
2022/02/09 06:23:08;;;;;;;5.60;2.63;;;;;;;-4.38;100.00;94174.88;2096220;28;20024;-82
2022/02/09 06:24:09;;;;;;;6.28;2.92;;;;;;;-4.47;100.00;94178.47;2096667;28;20413;-81
2022/02/09 06:25:10;;;;;;;3.45;2.55;;;;;;;-4.46;100.00;94183.38;2104754;28;20054;-82
2022/02/09 06:26:11;;;;;;;5.35;2.53;;;;;;;-4.42;100.00;94180.97;2096393;28;20020;-84
2022/02/09 06:27:13;;;;;;;5.60;3.33;;;;;;;-4.39;100.00;94172.53;2087991;28;20051;-82
2022/02/09 06:28:14;;;;;;;3.80;2.47;;;;;;;-4.39;100.00;94175.13;2088226;28;20155;-84
2022/02/09 06:29:15;;;;;;;5.30;3.42;;;;;;;-4.37;100.00;94173.78;2096213;28;20574;-83
2022/02/09 06:30:17;;;;;;;6.03;2.90;;;;;;;-4.42;100.00;94180.97;2096111;28;20592;-82
2022/02/09 06:31:18;;;;;;;6.95;2.83;;;;;;;-4.44;100.00;94186.47;2096223;28;20032;-82
2022/02/09 06:32:19;;;;;;;5.30;2.30;;;;;;;-4.44;100.00;94194.28;2091928;28;20120;-83
2022/02/09 06:33:20;;;;;;;5.22;2.55;;;;;;;-4.39;100.00;94182.97;2096242;28;20028;-81
2022/02/09 06:34:22;;;;;;;4.18;2.50;;;;;;;-4.46;100.00;94185.22;2102876;28;20016;-84
2022/02/09 06:35:23;;;;;;;5.22;3.22;;;;;;;-4.34;100.00;94178.44;2093065;28;20826;-85
2022/02/09 06:36:25;;;;;;;13.35;8.77;;;;;;;-4.31;100.00;94177.06;2087870;28;20037;-83
2022/02/09 06:37:38;;;;;;;9.30;6.30;;;;;;;-4.26;100.00;94178.78;2113144;28;20023;-82
2022/02/09 06:38:40;;;;;;;9.55;7.13;;;;;;;-4.29;100.00;94174.94;2103126;28;20023;-82
2022/02/09 06:39:46;;;;;;;10.00;6.35;;;;;;;-4.29;100.00;94174.94;2094359;28;20040;-82
2022/02/09 06:40:52;;;;;;;8.10;5.03;;;;;;;-4.14;100.00;94179.03;2096849;28;20040;-82
2022/02/09 06:41:53;;;;;;;5.82;3.75;;;;;;;-4.23;100.00;94173.75;2095839;28;20108;-82
2022/02/09 06:42:55;;;;;;;7.15;3.28;;;;;;;-4.29;100.00;94176.78;2099786;28;20046;-81
2022/02/09 06:43:56;;;;;;;4.20;2.55;;;;;;;-4.38;100.00;94176.72;2104737;28;20028;-82
2022/02/09 06:45:07;;;;;;;3.50;2.30;;;;;;;-4.32;100.00;94180.72;2088444;28;20733;-83
2022/02/09 06:46:08;;;;;;;5.10;2.80;;;;;;;-4.34;100.00;94181.03;2088285;28;20021;-83
2022/02/09 06:47:09;;;;;;;3.75;2.40;;;;;;;-4.39;100.00;94175.94;2088123;28;20025;-81
2022/02/09 06:48:15;;;;;;;4.13;2.70;;;;;;;-4.31;100.00;94177.06;2080303;28;20072;-81
2022/02/09 06:49:17;;;;;;;3.80;2.60;;;;;;;-4.41;100.00;94175.44;2102761;28;20042;-85
2022/02/09 06:50:35;;;;;;;4.00;2.75;;;;;;;-4.48;100.00;94175.06;2105859;28;20031;-82
2022/02/09 06:51:47;;;;;;;3.50;2.50;;;;;;;-4.46;100.00;94187.84;2094207;28;20059;-83
2022/02/09 06:52:58;;;;;;;3.88;2.38;;;;;;;-4.44;100.00;94185.69;2100764;28;20028;-81
2022/02/09 06:54:04;;;;;;;5.05;2.63;;;;;;;-4.43;100.00;94185.41;2107932;28;20111;-81
2022/02/09 06:55:21;;;;;;;5.15;2.47;;;;;;;-4.39;100.00;94189.00;2106273;28;20782;-81
2022/02/09 06:56:39;;;;;;;8.55;2.90;;;;;;;-4.32;100.00;94184.13;2102727;28;20190;-81
2022/02/09 06:57:58;;;;;;;3.97;2.50;;;;;;;-4.32;100.00;94186.72;2108647;28;20039;-81
2022/02/09 06:59:12;;;;;;;6.47;2.95;;;;;;;-4.29;100.00;94187.97;2108450;28;20024;-82
2022/02/09 07:00:14;;;;;;;4.95;2.90;;;;;;;-4.27;100.00;94188.44;2099927;28;20498;-81
2022/02/09 07:01:15;;;;;;;3.03;2.50;;;;;;;-4.35;100.00;94184.69;2098196;28;20069;-81
2022/02/09 07:02:16;;;;;;;4.88;2.65;;;;;;;-4.32;100.00;94184.13;2098081;28;20024;-82
2022/02/09 07:03:17;;;;;;;6.60;3.15;;;;;;;-4.38;100.00;94181.94;2114848;28;20027;-82
2022/02/09 07:04:18;;;;;;;7.03;2.75;;;;;;;-4.39;100.00;94181.16;2104885;28;20028;-83
2022/02/09 07:05:19;;;;;;;4.20;2.70;;;;;;;-4.28;100.00;94178.31;2104236;28;20020;-81
2022/02/09 07:06:20;;;;;;;3.83;2.50;;;;;;;-4.35;100.00;94178.72;2098542;28;20016;-81
2022/02/09 07:07:21;;;;;;;2.92;2.45;;;;;;;-4.28;100.00;94180.91;2103547;28;20035;-83
2022/02/09 07:08:22;;;;;;;4.30;2.72;;;;;;;-4.23;100.00;94175.59;2106165;28;20024;-81
2022/02/09 07:09:24;;;;;;;4.88;2.85;;;;;;;-4.22;100.00;94183.09;2099634;28;20059;-81
2022/02/09 07:10:25;;;;;;;6.03;2.78;;;;;;;-4.35;100.00;94176.09;2105193;28;20760;-82
2022/02/09 07:11:26;;;;;;;5.38;2.72;;;;;;;-4.30;100.00;94178.63;2097958;28;20024;-82
2022/02/09 07:12:27;;;;;;;4.30;2.70;;;;;;;-4.21;100.00;94179.44;2097959;28;20071;-81
2022/02/09 07:13:28;;;;;;;4.30;2.47;;;;;;;-4.25;100.00;94170.66;2089877;28;20021;-82
2022/02/09 07:14:30;;;;;;;3.28;2.60;;;;;;;-4.22;100.00;94167.44;2098224;28;20530;-81
2022/02/09 07:15:37;;;;;;;2.88;2.40;;;;;;;-4.12;100.00;94172.44;2097985;28;20055;-80
2022/02/09 07:16:39;;;;;;;4.25;2.15;;;;;;;-4.08;100.00;94172.63;2114585;28;20027;-80
2022/02/09 07:17:41;;;;;;;4.10;2.30;;;;;;;-4.13;100.00;94177.94;2097652;28;20032;-82
2022/02/09 07:18:44;;;;;;;5.15;2.35;;;;;;;-4.16;100.00;94181.94;2106035;28;20032;-80
2022/02/09 07:19:55;;;;;;;4.63;2.67;;;;;;;-4.02;100.00;94179.25;2097577;28;20432;-80
2022/02/09 07:21:02;;;;;;;3.72;2.42;;;;;;;-3.95;100.00;94178.84;2099290;28;20025;-82
2022/02/09 07:22:04;;;;;;;4.97;2.17;;;;;;;-3.92;100.00;94178.25;2100358;28;20020;-80
2022/02/09 07:23:06;;;;;;;4.20;2.40;;;;;;;-3.84;100.00;94186.13;2084530;28;20021;-81
2022/02/09 07:24:12;;;;;;;4.43;2.22;;;;;;;-3.83;100.00;94184.28;2089851;28;20017;-82
2022/02/09 07:25:16;;;;;;;4.80;2.55;;;;;;;-3.88;100.00;94187.03;2090978;28;20433;-82
2022/02/09 07:26:26;;;;;;;5.82;2.50;;;;;;;-3.74;100.00;94181.72;2090357;28;20494;-80
2022/02/09 07:27:39;;;;;;;;;;;;;;;-3.72;100.00;94184.81;2093875;28;20036;-81
2022/02/09 07:28:40;;;;;;;3.65;2.25;;;;;;;-3.65;100.00;94187.75;2106267;28;19955;-81
2022/02/09 07:29:41;;;;;;;3.53;2.20;;;;;;;-3.57;100.00;94190.44;2089766;28;20029;-84
2022/02/09 07:30:43;;;;;;;4.60;2.40;;;;;;;-3.60;100.00;94185.81;2097779;28;20020;-80
2022/02/09 07:31:45;;;;;;;6.53;2.38;;;;;;;-3.56;100.00;94189.38;2097897;28;20016;-81
2022/02/09 07:32:47;;;;;;;3.33;2.38;;;;;;;-3.55;100.00;94187.53;2098147;28;20021;-83
2022/02/09 07:33:48;;;;;;;3.25;2.15;;;;;;;-3.64;100.00;94184.88;2089198;28;20094;-81
2022/02/09 07:34:49;;;;;;;3.13;2.50;;;;;;;-3.65;100.00;94179.94;2087010;28;20108;-80
2022/02/09 07:35:50;;;;;;;3.60;2.63;;;;;;;-3.64;100.00;94182.25;2097612;28;20028;-80
2022/02/09 07:36:51;;;;;;;2.80;2.50;;;;;;;-3.63;100.00;94181.19;2089437;28;20025;-82
2022/02/09 07:37:52;;;;;;;4.38;2.53;;;;;;;-3.65;100.00;94185.91;2097702;28;20031;-81
2022/02/09 07:38:54;;;;;;;3.55;2.50;;;;;;;-3.61;100.00;94186.88;2114557;28;20117;-82
2022/02/09 07:39:57;;;;;;;4.82;2.58;;;;;;;-3.61;100.00;94186.09;2106066;28;20034;-83
2022/02/09 07:41:00;;;;;;;4.75;2.53;;;;;;;-3.60;100.00;94177.97;2099622;28;20031;-79
2022/02/09 07:42:09;;;;;;;3.70;2.65;;;;;;;-3.51;100.00;94182.44;2097957;28;20707;-79
2022/02/09 07:43:22;;;;;;;3.63;2.63;;;;;;;-3.45;100.00;94178.66;2101027;27;20090;-80
2022/02/09 07:44:42;;;;;;;3.95;2.53;;;;;;;-3.41;100.00;94176.97;2108403;28;20028;-79
2022/02/09 07:48:27;;;;;;;4.03;2.35;;;;;;;-3.24;100.00;94173.66;2104075;28;20086;-80
2022/02/09 07:51:01;;;;;;;4.80;2.80;;;;;;;-3.11;100.00;94164.94;2099529;28;20020;-80
2022/02/09 07:52:19;;;;;;;5.15;2.70;;;;;;;-3.11;100.00;94168.34;2105884;28;20036;-82
2022/02/09 07:53:25;;;;;;;3.70;2.65;;;;;;;-2.97;100.00;94170.81;2098115;28;20012;-81
2022/02/09 07:54:26;;;;;;;4.43;2.25;;;;;;;-3.06;100.00;94170.03;2098120;28;20774;-83
2022/02/09 07:55:27;;;;;;;4.93;2.97;;;;;;;-3.09;100.00;94174.00;2097383;28;20063;-80
2022/02/09 07:56:32;;;;;;;5.47;3.05;;;;;;;-3.02;100.00;94170.19;2105606;28;20724;-82
2022/02/09 07:57:33;;;;;;;4.68;3.45;;;;;;;-2.87;100.00;94167.91;2114577;27;20781;-83
2022/02/09 07:58:34;;;;;;;6.53;3.75;;;;;;;-2.88;100.00;94169.00;2114679;27;20043;-81
2022/02/09 07:59:35;;;;;;;4.80;3.33;;;;;;;-2.84;100.00;94166.56;2094537;28;20404;-81
2022/02/09 08:00:36;;;;;;;4.93;3.17;;;;;;;-2.84;100.00;94166.56;2091697;28;20020;-81
2022/02/09 08:01:38;;;;;;;8.02;3.30;;;;;;;-2.84;100.00;94162.09;2090302;28;20044;-79
2022/02/09 08:02:40;;;;;;;6.13;3.60;;;;;;;-2.81;100.00;94166.72;2090070;28;20127;-82
2022/02/09 08:03:43;;;;;;;5.03;3.40;;;;;;;-2.71;100.00;94155.19;2105775;28;20601;-80
2022/02/09 08:04:44;;;;;;;7.03;3.10;;;;;;;-2.64;100.00;94159.94;2115072;27;20035;-82
2022/02/09 08:05:45;;;;;;;6.40;3.40;;;;;;;-2.55;100.00;94158.91;2114241;28;20699;-83
2022/02/09 08:06:48;;;;;;;9.35;4.32;;;;;;;-2.61;100.00;94160.09;2105841;28;20069;-81
2022/02/09 08:07:49;;;;;;;9.48;3.97;;;;;;;-2.50;100.00;94160.59;2113152;28;20601;-82
2022/02/09 08:08:52;;;;;;;7.38;3.92;;;;;;;-2.36;100.00;94155.22;2090579;28;20116;-82
2022/02/09 08:09:56;;;;;;;5.50;3.53;;;;;;;-2.33;100.00;94155.38;2089959;28;20067;-80
2022/02/09 08:11:10;;;;;;;4.22;3.28;;;;;;;-2.22;100.00;94147.19;2090091;28;20045;-80
2022/02/09 08:27:43;;;;;;;5.50;3.35;;;;;;;-1.78;100.00;94144.19;2100104;28;20024;-83
2022/02/09 08:28:49;;;;;;;7.90;4.38;;;;;;;-1.83;100.00;94135.72;2094370;28;20773;-81
2022/02/09 08:33:16;;;;;;;6.22;4.13;;;;;;;-1.47;100.00;94145.03;2107021;28;20034;-83
2022/02/09 08:34:17;;;;;;;9.18;4.13;;;;;;;-1.56;100.00;94137.19;2107571;28;20081;-83
2022/02/09 08:35:18;;;;;;;6.00;3.92;;;;;;;-1.48;100.00;94141.66;2100460;28;20036;-83
2022/02/09 08:36:19;;;;;;;7.20;4.57;;;;;;;-1.43;100.00;94133.59;2097149;28;20118;-82
2022/02/09 08:37:20;;;;;;;6.63;4.65;;;;;;;-1.44;100.00;94134.69;2092503;28;20037;-82
2022/02/09 08:38:21;;;;;;;10.20;5.00;;;;;;;-1.39;100.00;94134.50;2089585;28;20021;-80
2022/02/09 08:39:24;;;;;;;8.05;4.70;;;;;;;-1.34;100.00;94136.94;2112367;27;20015;-82
2022/02/09 08:40:29;;;;;;;7.70;5.00;;;;;;;-1.26;100.00;94138.00;2113716;28;20468;-83
2022/02/09 08:41:29;;;;;;;11.27;5.00;;;;;;;-1.22;100.00;94133.69;2103965;28;20028;-83
2022/02/09 08:42:33;;;;;;;8.50;4.35;;;;;;;-1.13;100.00;94144.13;2105671;28;20021;-81
2022/02/09 08:43:34;;;;;;;9.35;5.30;;;;;;;-1.23;100.00;94139.97;2123022;27;20513;-83
2022/02/09 08:44:36;;;;;;;8.50;5.15;;;;;;;-1.24;100.00;94135.81;2113853;28;20065;-81
2022/02/09 08:45:39;;;;;;;11.05;5.18;;;;;;;-1.12;100.00;94135.16;2102933;28;20815;-81
2022/02/09 08:46:42;;;;;;;11.23;5.80;;;;;;;-0.97;100.00;94131.22;2108390;28;20116;-84
2022/02/09 08:47:44;;;;;;;8.38;5.32;;;;;;;-0.88;100.00;94132.72;2098076;28;20032;-80
2022/02/09 08:48:45;;;;;;;11.00;6.10;;;;;;;-0.97;100.00;94131.97;2096793;28;20029;-80
2022/02/09 08:49:47;;;;;;;11.32;5.88;;;;;;;-0.91;100.00;94129.97;2097209;28;20020;-84
2022/02/09 08:50:50;;;;;;;12.02;6.80;;;;;;;-0.83;100.00;94139.66;2097493;28;20066;-82
2022/02/09 08:51:51;;;;;;;10.52;5.82;;;;;;;-0.69;100.00;94127.03;2092716;28;20029;-81
2022/02/09 08:52:52;;;;;;;10.43;6.22;;;;;;;-0.78;100.00;94123.72;2097167;28;20389;-84
2022/02/09 08:53:54;;;;;;;9.88;6.28;;;;;;;-0.83;100.00;94127.28;2105599;28;20023;-81
2022/02/09 08:54:56;;;;;;;10.82;6.15;;;;;;;-0.74;100.00;94122.00;2096903;28;20032;-81
2022/02/09 08:55:57;;;;;;;11.05;5.75;;;;;;;-0.64;100.00;94128.72;2093119;28;20062;-84
2022/02/09 08:57:02;;;;;;;11.90;6.68;;;;;;;-0.65;100.00;94122.69;2097052;28;20086;-81
2022/02/09 08:58:04;;;;;;;14.27;6.85;;;;;;;-0.59;100.00;94124.03;2114048;28;20027;-81
2022/02/09 08:59:07;;;;;;;10.13;6.20;;;;;;;-0.56;100.00;94131.28;2104923;28;20496;-81
2022/02/09 09:00:44;;;;;;;8.63;6.78;;;;;;;-0.44;100.00;94129.78;2080811;28;20124;-82
2022/02/09 09:01:49;;;;;;;11.27;6.18;;;;;;;-0.44;100.00;94132.41;2094306;28;20042;-81
2022/02/09 09:03:05;;;;;;;11.73;6.32;;;;;;;-0.35;100.00;94123.41;2098321;28;20021;-82
2022/02/09 09:04:22;;;;;;;11.35;6.28;;;;;;;-0.35;100.00;94114.72;2101163;28;20032;-83
2022/02/09 09:05:30;;;;;;;12.02;7.13;;;;;;;-0.22;100.00;94113.72;2100877;28;20116;-84
2022/02/09 09:06:34;;;;;;;10.88;6.40;;;;;;;-0.23;100.00;94114.03;2097955;28;20036;-83
2022/02/09 09:07:37;;;;;;;10.57;6.25;;;;;;;-0.23;100.00;94120.03;2089087;28;20075;-82
2022/02/09 09:09:52;;;;;;;11.98;5.82;;;;;;;-0.18;100.00;94114.59;2105112;28;20027;-82
2022/02/09 09:58:00;;;;;;;10.13;5.53;;;;;;;1.38;100.00;94114.63;2103148;28;20170;-81
2022/02/09 10:02:17;;;;;;;9.32;5.35;;;;;;;2.50;100.00;94106.69;2104521;28;20028;-84
2022/02/09 10:33:14;;;;;;;7.72;3.58;;;;;;;3.82;100.00;94088.50;2109133;28;20027;-83
2022/02/09 10:34:21;;;;;;;6.45;3.50;;;;;;;3.66;100.00;94087.78;2104872;28;20099;-82
2022/02/09 10:35:35;;;;;;;5.45;3.72;;;;;;;4.04;100.00;94084.38;2103280;28;20031;-85
2022/02/09 10:36:51;;;;;;;7.75;3.92;;;;;;;4.06;100.00;94082.13;2104018;28;20028;-84
2022/02/09 10:37:55;;;;;;;6.70;3.28;;;;;;;3.93;100.00;94078.88;2111175;28;20052;-83
2022/02/09 10:39:09;;;;;;;6.30;3.63;;;;;;;4.01;100.00;94072.59;2096693;28;20016;-84
2022/02/09 10:40:31;;;;;;;4.72;3.42;;;;;;;4.13;100.00;94079.63;2091676;28;20381;-84
2022/02/09 10:41:39;;;;;;;5.97;3.35;;;;;;;4.17;100.00;94080.47;2116154;28;20023;-84
2022/02/09 10:42:46;;;;;;;6.78;3.55;;;;;;;4.24;100.00;94080.56;2100393;28;20040;-82
2022/02/09 10:43:47;;;;;;;6.80;3.72;;;;;;;4.15;100.00;94082.66;2081949;28;20532;-83
2022/02/09 10:44:54;;;;;;;7.55;3.88;;;;;;;4.11;100.00;94076.53;2104464;28;20028;-81
2022/02/09 10:46:10;;;;;;;5.80;3.10;;;;;;;4.31;100.00;94068.59;2092680;28;20057;-83
2022/02/09 10:47:27;;;;;;;6.40;3.65;;;;;;;4.46;100.00;94070.34;2090530;28;20075;-84
2022/02/09 10:48:34;;;;;;;7.28;3.30;;;;;;;4.61;100.00;94068.69;2092102;28;20071;-81
2022/02/09 10:49:35;;;;;;;6.93;2.85;;;;;;;4.68;100.00;94068.81;2098176;28;20110;-82
2022/02/09 10:50:38;;;;;;;5.25;3.17;;;;;;;4.68;100.00;94068.81;2104395;28;20380;-83
2022/02/09 10:52:46;;;;;;;4.88;3.20;;;;;;;4.43;100.00;94061.22;2096380;28;20078;-84
2022/02/09 10:54:22;;;;;;;4.65;2.97;;;;;;;4.48;100.00;94060.94;2097016;28;20501;-83
2022/02/09 10:55:34;;;;;;;7.40;3.30;;;;;;;4.39;100.00;94067.56;2067743;28;20048;-87